• Join FlightAware (Why Join?)
  • Login
  • US Flag 
10:25PM EDT


 

Airport Tracker/Info


-or-


 

Live Flight TrackerFlight Track Log ✈ SWA2116 ✈ 20-Jun-2013 ✈ KLAS - KBWI

Flight Track Log - Related Links

Times and Time Zones

All times are in EDT time to prevent confusion due to time zone crossing. See the SWA2116 flight status page for this flight to view local times or setup timezone preferences in your user account.

Time Position Orientation Groundspeed Altitude Reporting Facility
EDT Latitude Longitude Course Direction KTS MPH feet Rate Location/Type
08:47AM 36.0767 -115.1814 269° West 183 211 3,400  Level Los Angeles Center
08:48AM 36.0756 -115.2350 269° West 203 234 5,100 1,920 Climbing Los Angeles Center
08:49AM 36.0925 -115.2831 294° West 229 264 6,400 2,220 Climbing Los Angeles Center
08:50AM 36.1644 -115.2728 North 281 323 8,900 2,400 Climbing Los Angeles Center
08:51AM 36.1964 -115.1764 68° East 305 351 11,300 2,280 Climbing Los Angeles Center
08:52AM 36.1975 -115.0522 89° East 348 400 13,500 2,280 Climbing Los Angeles Center
08:53AM 36.1981 -114.9192 90° East 377 434 16,000 2,520 Climbing Los Angeles Center
08:54AM 36.2000 -114.7792 89° East 400 460 18,700 2,460 Climbing Los Angeles Center
08:55AM 36.1981 -114.6339 91° East 415 478 21,000 2,160 Climbing Los Angeles Center
08:56AM 36.1961 -114.4831 91° East 432 497 23,100 1,980 Climbing Los Angeles Center
08:57AM 36.1950 -114.3297 90° East 443 510 25,100 1,920 Climbing Los Angeles Center
08:58AM 36.1997 -114.1708 88° East 457 526 27,000 1,680 Climbing Los Angeles Center
08:59AM 36.2214 -114.0106 80° East 470 541 28,600 1,440 Climbing Los Angeles Center
09:00AM 36.2408 -113.8450 82° East 481 554 30,000 1,440 Climbing Los Angeles Center
09:01AM 36.2603 -113.6753 82° East 492 566 31,600 1,680 Climbing Los Angeles Center
09:02AM 36.2803 -113.5067 82° East 496 571 33,400 1,680 Climbing Los Angeles Center
09:03AM 36.3022 -113.3044 82° East 495 570 35,000 1,320 Climbing Los Angeles Center
09:04AM 36.3350 -113.1575 74° East 496 571 36,200 960 Climbing Los Angeles Center
09:05AM 36.3936 -113.0036 65° Northeast 496 571 37,000 360 Climbing Los Angeles Center
09:06AM 36.4519 -112.8481 65° Northeast 500 575 37,000  Level Los Angeles Center
09:07AM 36.5083 -112.6925 66° East 498 573 37,000  Level Los Angeles Center
09:08AM 36.5642 -112.5367 66° East 497 572 37,000  Level Los Angeles Center
09:09AM 36.6206 -112.3833 65° Northeast 492 566 37,000  Level Los Angeles Center
09:10AM 36.6883 -112.1997 65° Northeast 488 562 37,000  Level Los Angeles Center
09:11AM 36.7447 -112.0472 65° Northeast 488 562 37,000  Level Los Angeles Center
09:12AM 36.7997 -111.8933 66° East 489 563 37,000  Level Los Angeles Center
09:13AM 36.8553 -111.7378 66° East 492 566 37,000  Level Los Angeles Center
09:14AM 36.9114 -111.5825 66° East 493 567 37,000  Level Denver Center
09:15AM 36.9661 -111.4269 66° East 493 567 37,000  Level Denver Center
09:16AM 37.0197 -111.2711 67° East 491 565 37,000  Level Denver Center
09:17AM 37.0736 -111.1144 67° East 493 567 37,000  Level Denver Center
09:18AM 37.1289 -110.9575 66° East 495 570 37,000  Level Denver Center
09:19AM 37.1947 -110.7664 67° East 498 573 37,000  Level Denver Center
09:20AM 37.2494 -110.6072 67° East 499 574 37,000  Level Denver Center
09:21AM 37.3047 -110.4486 66° East 499 574 37,000  Level Denver Center
09:22AM 37.3572 -110.2911 67° East 492 566 37,000  Level Denver Center
09:23AM 37.3981 -110.1703 67° East 492 566 37,000  Level Denver Center
09:24AM 37.4664 -109.9678 67° East 492 566 37,000  Level Denver Center
09:25AM 37.5186 -109.8156 67° East 493 567 37,000  Level Denver Center
09:26AM 37.5781 -109.6356 67° East 497 572 37,000  Level Denver Center
09:27AM 37.6281 -109.4814 68° East 495 570 37,000  Level Denver Center
09:28AM 37.6792 -109.3278 67° East 495 570 37,000  Level Denver Center
09:29AM 37.7386 -109.1461 67° East 499 574 37,000  Level Denver Center
09:30AM 37.7892 -108.9914 67° East 497 572 37,000  Level Denver Center
09:31AM 37.8406 -108.8364 67° East 498 573 37,000  Level Denver Center
09:32AM 37.9050 -108.6569 65° Northeast 500 575 37,000  Level Denver Center
09:33AM 37.9589 -108.5017 66° East 501 577 37,000  Level Denver Center
09:34AM 38.0117 -108.3481 66° East 499 574 37,000  Level Denver Center
09:35AM 38.0761 -108.1611 66° East 501 577 37,000  Level Denver Center
09:36AM 38.1281 -108.0069 67° East 499 574 37,000  Level Denver Center
09:37AM 38.1806 -107.8517 67° East 498 573 37,000  Level Denver Center
09:38AM 38.2414 -107.6728 67° East 495 570 37,000  Level Denver Center
09:39AM 38.2928 -107.5208 67° East 490 564 37,000  Level Denver Center
09:40AM 38.3444 -107.3650 67° East 498 573 37,000  Level Denver Center
09:41AM 38.4033 -107.1847 67° East 495 570 37,000  Level Denver Center
09:43AM 38.4508 -107.0394 67° East 495 570 37,000  Level Denver Center
09:44AM 38.4850 -106.8717 75° East 489 563 37,000  Level Denver Center
09:45AM 38.5181 -106.7053 76° East 487 560 37,000  Level Denver Center
09:46AM 38.5567 -106.5033 76° East 490 564 37,000  Level Denver Center
09:47AM 38.5903 -106.3372 75° East 486 559 37,000  Level Denver Center
09:48AM 38.6217 -106.1711 76° East 484 557 37,000  Level Denver Center
09:49AM 38.6500 -106.0192 77° East 483 556 37,000  Level Denver Center
09:50AM 38.6883 -105.8211 76° East 478 550 37,000  Level Denver Center
09:51AM 38.7186 -105.6569 77° East 476 548 37,000  Level Denver Center
09:52AM 38.7500 -105.4933 76° East 474 545 37,000  Level Denver Center
09:53AM 38.7800 -105.3283 77° East 478 550 37,000  Level Denver Center
09:54AM 38.8094 -105.1656 77° East 473 544 37,000  Level Denver Center
09:55AM 38.8392 -105.0047 77° East 470 541 37,000  Level Denver Center
09:56AM 38.8686 -104.8400 77° East 476 548 37,000  Level Denver Center
09:57AM 38.9053 -104.6400 77° East 481 554 37,000  Level Denver Center
09:58AM 38.9344 -104.4750 77° East 479 551 37,000  Level Denver Center
09:59AM 38.9628 -104.3108 77° East 476 548 37,000  Level Denver Center
10:00AM 38.9917 -104.1461 77° East 477 549 37,000  Level Denver Center
10:01AM 39.0206 -103.9747 78° East 477 549 37,000  Level Denver Center
10:02AM 39.0478 -103.8150 78° East 477 549 37,000  Level Denver Center
10:03AM 39.0783 -103.6294 78° East 475 547 37,000  Level Denver Center
10:04AM 39.0917 -103.4686 84° East 467 537 37,000  Level Denver Center
10:05AM 39.1022 -103.2800 86° East 473 544 37,000  Level Denver Center
10:06AM 39.1125 -103.1175 85° East 474 545 37,000  Level Denver Center
10:07AM 39.1225 -102.9294 86° East 471 542 37,000  Level Denver Center
10:08AM 39.1333 -102.7411 86° East 470 541 37,000  Level Denver Center
10:09AM 39.1428 -102.5592 86° East 470 541 37,000  Level Denver Center
10:10AM 39.1506 -102.3972 86° East 471 542 37,000  Level Denver Center
10:11AM 39.1600 -102.2114 86° East 468 539 37,000  Level Denver Center
10:12AM 39.1672 -102.0522 87° East 466 536 37,000  Level Denver Center
10:13AM 39.1764 -101.8667 86° East 465 535 37,000  Level Denver Center
10:14AM 39.1836 -101.7078 87° East 465 535 37,000  Level Denver Center
10:16AM 39.1919 -101.5222 87° East 467 537 37,000  Level Denver Center
10:17AM 39.1978 -101.3906 87° East 464 534 37,000  Level Denver Center
10:18AM 39.2058 -101.2072 87° East 462 532 37,000  Level Denver Center
10:19AM 39.2122 -101.0236 87° East 459 528 37,000  Level Denver Center
10:20AM 39.2186 -100.8644 87° East 463 533 37,000  Level Denver Center
10:21AM 39.2250 -100.6822 87° East 458 527 37,000  Level Denver Center
10:22AM 39.2306 -100.5233 87° East 462 532 37,000  Level Denver Center
10:23AM 39.2369 -100.3386 87° East 462 532 37,000  Level Denver Center
10:24AM 39.2417 -100.1817 88° East 461 531 37,000  Level Denver Center
10:25AM 39.2481 -99.9969 87° East 462 532 37,000  Level Denver Center
10:26AM 39.2519 -99.8381 88° East 463 533 37,000  Level Denver Center
10:27AM 39.2567 -99.6522 88° East 463 533 37,000  Level Denver Center
10:28AM 39.2611 -99.4942 88° East 463 533 37,000  Level Denver Center
10:29AM 39.2656 -99.3092 88° East 461 531 37,000  Level Denver Center
10:30AM 39.2689 -99.1508 88° East 464 534 37,000  Level Denver Center
10:31AM 39.2739 -98.9658 88° East 463 533 37,000  Level Denver Center
10:32AM 39.2764 -98.8214 89° East 459 528 37,000  Level Denver Center
10:33AM 39.2800 -98.6247 89° East 459 528 37,000  Level Denver Center
10:34AM 39.2828 -98.4603 89° East 459 528 37,000  Level Denver Center
10:35AM 39.2861 -98.2956 88° East 460 529 37,000  Level Denver Center
10:37AM 39.2886 -98.0597 89° East 455 524 37,000  Level Kansas City Center
10:38AM 39.2911 -97.9014 89° East 459 528 37,000  Level Kansas City Center
10:39AM 39.2942 -97.7025 89° East 460 529 37,000  Level Kansas City Center
10:40AM 39.2953 -97.5389 89° East 458 527 37,000  Level Kansas City Center
10:41AM 39.2961 -97.3775 90° East 456 525 37,000  Level Kansas City Center
10:42AM 39.2978 -97.2203 89° East 458 527 37,000  Level Kansas City Center
10:43AM 39.2986 -97.0383 90° East 455 524 37,000  Level Kansas City Center
10:44AM 39.2986 -96.8817 90° East 456 525 37,000  Level Kansas City Center
10:45AM 39.2989 -96.6989 90° East 456 525 37,000  Level Kansas City Center
10:46AM 39.2994 -96.5414 90° East 457 526 37,000  Level Kansas City Center
10:47AM 39.2992 -96.3828 90° East 457 526 37,000  Level Kansas City Center
10:48AM 39.2994 -96.2175 90° East 460 529 37,000  Level Kansas City Center
10:49AM 39.2972 -96.0153 91° East 461 531 37,000  Level Kansas City Center
10:50AM 39.2972 -95.8578 90° East 459 528 37,000  Level Kansas City Center
10:51AM 39.2958 -95.6731 90° East 460 529 37,000  Level Kansas City Center
10:52AM 39.2947 -95.5169 90° East 455 524 37,000  Level Kansas City Center
10:53AM 39.2931 -95.3400 91° East 453 521 37,000  Level Kansas City Center
10:54AM 39.2900 -95.1769 91° East 454 522 37,000  Level Kansas City Center
10:55AM 39.2894 -95.0133 90° East 453 521 37,000  Level Kansas City Center
10:56AM 39.2858 -94.8572 92° East 452 520 37,000  Level Kansas City Center
10:57AM 39.2911 -94.6714 88° East 460 529 37,000  Level Kansas City Center
10:58AM 39.3150 -94.5164 79° East 464 534 37,000  Level Kansas City Center
10:59AM 39.3386 -94.3358 80° East 457 526 37,000  Level Kansas City Center
11:00AM 39.3578 -94.1806 81° East 457 526 37,000  Level Kansas City Center
11:01AM 39.3811 -93.9986 81° East 459 528 37,000  Level Kansas City Center
11:02AM 39.4008 -93.8428 81° East 459 528 37,000  Level Kansas City Center
11:04AM 39.4236 -93.6583 81° East 461 531 37,000  Level Kansas City Center
11:05AM 39.4436 -93.4969 81° East 460 529 37,000  Level Kansas City Center
11:06AM 39.4625 -93.3369 81° East 457 526 37,000  Level Kansas City Center
11:07AM 39.4825 -93.1764 81° East 456 525 37,000  Level Kansas City Center
11:08AM 39.5011 -93.0169 81° East 456 525 37,000  Level Kansas City Center
11:09AM 39.5219 -92.8236 82° East 456 525 37,000  Level Kansas City Center
11:10AM 39.5403 -92.6622 82° East 458 527 37,000  Level Kansas City Center
11:11AM 39.5589 -92.5003 81° East 461 531 37,000  Level Kansas City Center
11:12AM 39.5767 -92.3417 82° East 455 524 37,000  Level Kansas City Center
11:13AM 39.5981 -92.1489 82° East 455 524 37,000  Level Kansas City Center
11:14AM 39.6147 -91.9894 82° East 454 522 37,000  Level Kansas City Center
11:15AM 39.6319 -91.8275 82° East 456 525 37,000  Level Kansas City Center
11:16AM 39.6489 -91.6664 82° East 456 525 37,000  Level Kansas City Center
11:17AM 39.6689 -91.4736 82° East 456 525 37,000  Level Kansas City Center
11:18AM 39.6847 -91.3192 82° East 458 527 37,000  Level Kansas City Center
11:19AM 39.7017 -91.1553 82° East 458 527 37,000  Level Kansas City Center
11:20AM 39.7194 -90.9911 82° East 458 527 37,000  Level Kansas City Center
11:21AM 39.7344 -90.8297 83° East 454 522 37,000  Level Kansas City Center
11:22AM 39.7503 -90.6594 83° East 457 526 37,000  Level Kansas City Center
11:23AM 39.7692 -90.4661 83° East 453 521 37,000  Level Kansas City Center
11:24AM 39.7842 -90.3039 83° East 454 522 37,000  Level Kansas City Center
11:25AM 39.7986 -90.1408 83° East 455 524 37,000  Level Kansas City Center
11:26AM 39.8131 -89.9792 83° East 454 522 37,000  Level Kansas City Center
11:27AM 39.8275 -89.8175 83° East 454 522 37,000  Level Kansas City Center
11:28AM 39.8406 -89.6236 85° East 452 520 37,000  Level Kansas City Center
11:29AM 39.8408 -89.4589 90° East 455 524 37,000  Level Kansas City Center
11:30AM 39.8408 -89.2944 90° East 456 525 37,000  Level Kansas City Center
11:31AM 39.8422 -89.1311 89° East 454 522 37,000  Level Kansas City Center
11:32AM 39.8428 -88.9669 90° East 454 522 37,000  Level Kansas City Center
11:34AM 39.8417 -88.8031 90° East 455 524 37,000  Level Kansas City Center
11:35AM 39.8419 -88.6067 90° East 455 524 37,000  Level Kansas City Center
11:36AM 39.8428 -88.4433 90° East 454 522 37,000  Level Kansas City Center
11:37AM 39.8417 -88.2786 90° East 456 525 37,000  Level Kansas City Center
11:38AM 39.8400 -88.1172 91° East 454 522 37,000  Level Kansas City Center
11:39AM 39.8397 -87.9556 90° East 450 518 37,000  Level Kansas City Center
11:40AM 39.8375 -87.8008 91° East 450 518 37,000  Level Indianapolis Center
11:41AM 39.8356 -87.6392 91° East 447 514 37,000  Level Indianapolis Center
11:42AM 39.8339 -87.4428 91° East 453 521 37,000  Level Indianapolis Center
11:43AM 39.8308 -87.2825 91° East 446 513 37,000  Level Indianapolis Center
11:44AM 39.8281 -87.1178 91° East 453 521 37,000  Level Indianapolis Center
11:45AM 39.8267 -86.9547 91° East 453 521 37,000  Level Indianapolis Center
11:46AM 39.8239 -86.7917 91° East 453 521 37,000  Level Indianapolis Center
11:47AM 39.8203 -86.6272 92° East 454 522 37,000  Level Indianapolis Center
11:48AM 39.8172 -86.4614 91° East 456 525 37,000  Level Indianapolis Center
11:49AM 39.8200 -86.2800 89° East 461 531 37,000  Level Indianapolis Center
11:50AM 39.8306 -86.1197 85° East 460 529 37,000  Level Indianapolis Center
11:51AM 39.8408 -85.9247 86° East 452 520 37,000  Level Indianapolis Center
11:52AM 39.8503 -85.7625 86° East 451 519 37,000  Level Indianapolis Center
11:53AM 39.8583 -85.6000 86° East 452 520 37,000  Level Indianapolis Center
11:54AM 39.8667 -85.4378 86° East 450 518 37,000  Level Indianapolis Center
11:55AM 39.8758 -85.2736 86° East 456 525 37,000  Level Indianapolis Center
11:56AM 39.8842 -85.1100 86° East 455 524 37,000  Level Indianapolis Center
11:57AM 39.8947 -84.9139 86° East 453 521 37,000  Level Indianapolis Center
11:58AM 39.9008 -84.7464 87° East 452 520 37,000  Level Indianapolis Center
11:59AM 39.9083 -84.5822 87° East 451 519 37,000  Level Indianapolis Center
12:00PM 39.9156 -84.4175 87° East 451 519 37,000  Level Indianapolis Center
12:01PM 39.9233 -84.2539 86° East 450 518 37,000  Level Indianapolis Center
12:02PM 39.9297 -84.0919 87° East 446 513 37,000  Level Indianapolis Center
12:03PM 39.9356 -83.9275 87° East 448 516 37,000  Level Indianapolis Center
12:04PM 39.9436 -83.7361 87° East 448 516 37,000  Level Indianapolis Center
12:05PM 39.9503 -83.5703 87° East 448 516 37,000  Level Indianapolis Center
12:06PM 39.9572 -83.3992 87° East 456 525 37,000  Level Indianapolis Center
12:08PM 39.9617 -83.2317 88° East 454 522 37,000  Level Indianapolis Center
12:09PM 39.9669 -83.0664 88° East 452 520 37,000  Level Indianapolis Center
12:10PM 39.9719 -82.9036 88° East 447 514 37,000  Level Indianapolis Center
12:11PM 39.9769 -82.7383 88° East 450 518 37,000  Level Indianapolis Center
12:12PM 39.9814 -82.5758 88° East 449 517 37,000  Level Indianapolis Center
12:13PM 39.9864 -82.4122 88° East 448 516 37,000  Level Indianapolis Center
12:14PM 39.9906 -82.2469 88° East 450 518 37,000  Level Indianapolis Center
12:15PM 39.9944 -82.0831 88° East 450 518 37,000  Level Indianapolis Center
12:16PM 39.9981 -81.8919 89° East 449 517 37,000  Level Indianapolis Center
12:17PM 40.0011 -81.7306 89° East 448 516 37,000  Level Indianapolis Center
12:18PM 40.0042 -81.5644 89° East 455 524 37,000  Level Indianapolis Center
12:19PM 40.0069 -81.3986 89° East 456 525 37,000  Level Indianapolis Center
12:20PM 40.0097 -81.2328 89° East 457 526 37,000  Level Indianapolis Center
12:21PM 39.9958 -81.0664 96° East 459 528 37,000  Level Indianapolis Center
12:22PM 39.9692 -80.9019 102° East 462 532 37,000  Level Indianapolis Center
12:23PM 39.9431 -80.7422 102° East 454 522 37,000  Level Indianapolis Center
12:24PM 39.9106 -80.5458 102° East 460 529 37,000  Level Indianapolis Center
12:25PM 39.8836 -80.3828 102° East 460 529 37,000  Level Indianapolis Center
12:26PM 39.8539 -80.1856 101° East 448 516 37,000 -300 Level Cleveland Center
12:28PM 39.8106 -79.9297 102° East 444 511 36,300 -1,260 Descending Washington Center
12:29PM 39.7831 -79.7714 103° East 444 511 33,800 -2,220 Descending Washington Center
12:30PM 39.7550 -79.6133 103° East 449 517 31,800 -2,040 Descending Washington Center
12:31PM 39.7286 -79.4633 103° East 442 509 29,800 -1,920 Descending Washington Center
12:32PM 39.7019 -79.3189 103° East 420 483 28,000 -1,800 Descending Washington Center
12:33PM 39.6811 -79.1803 101° East 404 465 26,200 -1,500 Descending Washington Center
12:34PM 39.6556 -79.0550 105° East 391 450 25,000 -1,860 Descending Washington Center
12:35PM 39.6203 -78.8997 106° East 392 451 22,500 -2,040 Descending Washington Center
12:36PM 39.5889 -78.7583 106° East 402 463 21,000 -780 Descending Washington Center
12:37PM 39.5628 -78.6361 105° East 402 463 21,000 -300 Level Washington Center
12:38PM 39.5308 -78.4947 106° East 402 463 20,500 -1,200 Descending Washington Center
12:39PM 39.5006 -78.3592 106° East 402 463 18,600 -1,980 Descending Washington Center
12:40PM 39.4722 -78.2261 105° East 397 457 16,600 -1,800 Descending Washington Center
12:41PM 39.4417 -78.0989 107° East 385 443 15,000 -900 Descending Washington Center
12:42PM 39.4192 -77.9744 103° East 373 429 14,900 -540 Descending Washington Center
12:43PM 39.4217 -77.8456 89° East 353 406 14,000 -960 Descending Washington Center
12:44PM 39.4283 -77.7167 86° East 353 406 13,000 -1,020 Descending Washington Center
12:45PM 39.4344 -77.5906 86° East 353 406 12,000 -1,020 Descending Washington Center
12:46PM 39.4408 -77.4672 86° East 343 395 11,100 -480 Descending Washington Center
12:47PM 39.4500 -77.3167 85° East 296 341 11,000 -120 Descending Potomac TRACON
12:48PM 39.4667 -77.2167 78° East 298 343 10,900 -540 Descending Potomac TRACON
12:49PM 39.4500 -77.1000 100° East 313 360 10,000 -540 Descending Potomac TRACON
12:50PM 39.4333 -77.0000 102° East 316 364 9,900 -720 Descending Potomac TRACON
12:51PM 39.4167 -76.8833 100° East 287 330 8,600 -1,380 Descending Potomac TRACON
12:52PM 39.4000 -76.7833 102° East 283 326 7,100 -1,440 Descending Potomac TRACON
12:53PM 39.4167 -76.7000 75° East 281 323 5,900 -1,080 Descending Potomac TRACON
12:54PM 39.4333 -76.6000 78° East 267 307 5,000 -480 Descending Potomac TRACON
12:55PM 39.4167 -76.5167 104° East 271 312 5,000 -300 Level Potomac TRACON
12:56PM 39.3500 -76.4667 150° Southeast 256 295 4,400 -540 Descending Potomac TRACON
12:57PM 39.2833 -76.4333 159° South 247 284 4,000 -240 Descending Potomac TRACON
12:58PM 39.2167 -76.4333 180° South 246 283 4,000 -360 Level Potomac TRACON
12:59PM 39.1667 -76.4833 218° Southwest 246 283 3,300 -600 Descending Potomac TRACON
01:00PM 39.1167 -76.5333 218° Southwest 231 266 2,900 -780 Descending Potomac TRACON
01:01PM 39.1167 -76.6000 270° West 189 217 1,800 -1,080 Descending Potomac TRACON
01:02PM 39.1333 -76.6333 303° West 155 178 700 -1,140 Descending Potomac TRACON
01:04PM 39.1754 -76.6683 31° Northeast  Level Estimated